sensor_id;sensor_type;location;lat;lon;timestamp;P1;durP1;ratioP1;P2;durP2;ratioP2
28625;SDS011;18905;42.668;23.364;2022-12-18T00:02:20;10.27;;;7.18;;
28625;SDS011;18905;42.668;23.364;2022-12-18T00:04:47;12.88;;;8.13;;
28625;SDS011;18905;42.668;23.364;2022-12-18T00:07:12;11.85;;;7.47;;
28625;SDS011;18905;42.668;23.364;2022-12-18T00:09:38;16.95;;;8.35;;
28625;SDS011;18905;42.668;23.364;2022-12-18T00:12:03;12.88;;;8.13;;
28625;SDS011;18905;42.668;23.364;2022-12-18T00:14:29;13.50;;;7.75;;
28625;SDS011;18905;42.668;23.364;2022-12-18T00:16:54;13.15;;;7.95;;
28625;SDS011;18905;42.668;23.364;2022-12-18T00:19:19;13.82;;;8.55;;
28625;SDS011;18905;42.668;23.364;2022-12-18T00:21:45;11.43;;;7.75;;
28625;SDS011;18905;42.668;23.364;2022-12-18T00:24:10;12.13;;;7.82;;
28625;SDS011;18905;42.668;23.364;2022-12-18T00:26:37;15.90;;;8.43;;
28625;SDS011;18905;42.668;23.364;2022-12-18T00:29:07;13.82;;;7.68;;
28625;SDS011;18905;42.668;23.364;2022-12-18T00:31:39;12.40;;;8.00;;
28625;SDS011;18905;42.668;23.364;2022-12-18T00:34:05;13.40;;;8.57;;
28625;SDS011;18905;42.668;23.364;2022-12-18T00:36:32;12.20;;;7.97;;
28625;SDS011;18905;42.668;23.364;2022-12-18T00:39:00;16.48;;;7.78;;
28625;SDS011;18905;42.668;23.364;2022-12-18T00:41:27;13.60;;;8.38;;
28625;SDS011;18905;42.668;23.364;2022-12-18T00:44:13;12.73;;;8.45;;
28625;SDS011;18905;42.668;23.364;2022-12-18T00:46:40;15.20;;;8.45;;
28625;SDS011;18905;42.668;23.364;2022-12-18T00:49:05;12.82;;;7.40;;
28625;SDS011;18905;42.668;23.364;2022-12-18T00:51:31;13.50;;;8.25;;
28625;SDS011;18905;42.668;23.364;2022-12-18T00:53:57;13.05;;;8.45;;
28625;SDS011;18905;42.668;23.364;2022-12-18T00:56:22;13.73;;;7.97;;
28625;SDS011;18905;42.668;23.364;2022-12-18T00:58:48;11.50;;;6.80;;
28625;SDS011;18905;42.668;23.364;2022-12-18T01:01:14;12.57;;;7.47;;
28625;SDS011;18905;42.668;23.364;2022-12-18T01:03:39;12.32;;;6.85;;
28625;SDS011;18905;42.668;23.364;2022-12-18T01:06:06;10.65;;;6.75;;
28625;SDS011;18905;42.668;23.364;2022-12-18T01:08:33;10.93;;;6.35;;
28625;SDS011;18905;42.668;23.364;2022-12-18T01:10:58;12.52;;;8.05;;
28625;SDS011;18905;42.668;23.364;2022-12-18T01:13:24;12.43;;;7.63;;
28625;SDS011;18905;42.668;23.364;2022-12-18T01:15:49;11.63;;;7.55;;
28625;SDS011;18905;42.668;23.364;2022-12-18T01:18:15;13.10;;;7.40;;
28625;SDS011;18905;42.668;23.364;2022-12-18T01:20:41;14.48;;;7.50;;
28625;SDS011;18905;42.668;23.364;2022-12-18T01:23:06;13.43;;;7.70;;
28625;SDS011;18905;42.668;23.364;2022-12-18T01:25:32;13.38;;;7.80;;
28625;SDS011;18905;42.668;23.364;2022-12-18T01:27:57;13.20;;;8.40;;
28625;SDS011;18905;42.668;23.364;2022-12-18T01:30:23;17.90;;;9.57;;
28625;SDS011;18905;42.668;23.364;2022-12-18T01:32:48;16.70;;;9.48;;
28625;SDS011;18905;42.668;23.364;2022-12-18T01:35:14;15.68;;;9.27;;
28625;SDS011;18905;42.668;23.364;2022-12-18T01:37:39;16.17;;;8.88;;
28625;SDS011;18905;42.668;23.364;2022-12-18T01:40:05;16.08;;;9.57;;
28625;SDS011;18905;42.668;23.364;2022-12-18T01:42:31;13.50;;;7.78;;
28625;SDS011;18905;42.668;23.364;2022-12-18T01:50:05;17.65;;;9.65;;
28625;SDS011;18905;42.668;23.364;2022-12-18T01:52:35;12.18;;;7.13;;
28625;SDS011;18905;42.668;23.364;2022-12-18T01:55:02;15.15;;;8.70;;
28625;SDS011;18905;42.668;23.364;2022-12-18T01:57:29;16.30;;;9.55;;
28625;SDS011;18905;42.668;23.364;2022-12-18T01:59:57;15.30;;;9.02;;
28625;SDS011;18905;42.668;23.364;2022-12-18T02:02:26;15.48;;;8.70;;
28625;SDS011;18905;42.668;23.364;2022-12-18T02:04:54;17.15;;;9.82;;
28625;SDS011;18905;42.668;23.364;2022-12-18T02:07:32;15.70;;;9.05;;
28625;SDS011;18905;42.668;23.364;2022-12-18T02:12:45;11.40;;;7.10;;
28625;SDS011;18905;42.668;23.364;2022-12-18T02:17:56;19.08;;;9.88;;
28625;SDS011;18905;42.668;23.364;2022-12-18T02:29:05;16.17;;;8.73;;
28625;SDS011;18905;42.668;23.364;2022-12-18T02:31:36;14.02;;;8.30;;
28625;SDS011;18905;42.668;23.364;2022-12-18T02:34:07;14.63;;;8.65;;
28625;SDS011;18905;42.668;23.364;2022-12-18T02:36:34;14.82;;;7.95;;
28625;SDS011;18905;42.668;23.364;2022-12-18T02:39:03;13.90;;;8.80;;
28625;SDS011;18905;42.668;23.364;2022-12-18T02:41:31;16.17;;;8.35;;
28625;SDS011;18905;42.668;23.364;2022-12-18T02:44:01;13.90;;;8.07;;
28625;SDS011;18905;42.668;23.364;2022-12-18T02:49:05;13.45;;;8.15;;
28625;SDS011;18905;42.668;23.364;2022-12-18T02:57:08;13.23;;;9.00;;
28625;SDS011;18905;42.668;23.364;2022-12-18T02:59:47;16.73;;;9.07;;
28625;SDS011;18905;42.668;23.364;2022-12-18T03:05:14;16.73;;;9.23;;
28625;SDS011;18905;42.668;23.364;2022-12-18T03:10:24;20.75;;;10.55;;
28625;SDS011;18905;42.668;23.364;2022-12-18T03:12:59;17.52;;;10.25;;
28625;SDS011;18905;42.668;23.364;2022-12-18T03:15:34;17.25;;;9.93;;
28625;SDS011;18905;42.668;23.364;2022-12-18T03:18:14;14.77;;;8.40;;
28625;SDS011;18905;42.668;23.364;2022-12-18T03:20:44;13.45;;;8.23;;
28625;SDS011;18905;42.668;23.364;2022-12-18T03:23:14;17.27;;;9.38;;
28625;SDS011;18905;42.668;23.364;2022-12-18T03:25:43;13.40;;;7.70;;
28625;SDS011;18905;42.668;23.364;2022-12-18T03:28:12;13.27;;;7.32;;
28625;SDS011;18905;42.668;23.364;2022-12-18T03:30:40;14.10;;;8.05;;
28625;SDS011;18905;42.668;23.364;2022-12-18T03:33:29;12.15;;;7.47;;
28625;SDS011;18905;42.668;23.364;2022-12-18T03:35:57;17.15;;;9.65;;
28625;SDS011;18905;42.668;23.364;2022-12-18T03:38:23;14.63;;;9.18;;
28625;SDS011;18905;42.668;23.364;2022-12-18T03:43:21;16.20;;;9.38;;
28625;SDS011;18905;42.668;23.364;2022-12-18T03:45:53;16.25;;;9.80;;
28625;SDS011;18905;42.668;23.364;2022-12-18T03:48:38;13.98;;;7.95;;
28625;SDS011;18905;42.668;23.364;2022-12-18T03:51:10;18.40;;;9.38;;
28625;SDS011;18905;42.668;23.364;2022-12-18T03:53:53;15.88;;;8.40;;
28625;SDS011;18905;42.668;23.364;2022-12-18T03:56:21;18.15;;;9.32;;
28625;SDS011;18905;42.668;23.364;2022-12-18T03:58:49;16.27;;;9.88;;
28625;SDS011;18905;42.668;23.364;2022-12-18T04:01:17;17.00;;;9.07;;
28625;SDS011;18905;42.668;23.364;2022-12-18T04:03:46;15.45;;;8.95;;
28625;SDS011;18905;42.668;23.364;2022-12-18T04:06:14;19.75;;;9.95;;
28625;SDS011;18905;42.668;23.364;2022-12-18T04:08:41;15.95;;;8.88;;
28625;SDS011;18905;42.668;23.364;2022-12-18T04:11:07;17.52;;;9.13;;
28625;SDS011;18905;42.668;23.364;2022-12-18T04:13:36;15.50;;;8.60;;
28625;SDS011;18905;42.668;23.364;2022-12-18T04:16:03;15.93;;;8.23;;
28625;SDS011;18905;42.668;23.364;2022-12-18T04:18:28;14.25;;;8.30;;
28625;SDS011;18905;42.668;23.364;2022-12-18T04:20:54;17.80;;;9.30;;
28625;SDS011;18905;42.668;23.364;2022-12-18T04:23:19;16.17;;;8.60;;
28625;SDS011;18905;42.668;23.364;2022-12-18T04:25:46;15.60;;;9.57;;
28625;SDS011;18905;42.668;23.364;2022-12-18T04:28:11;14.30;;;9.05;;
28625;SDS011;18905;42.668;23.364;2022-12-18T04:30:37;14.43;;;9.32;;
28625;SDS011;18905;42.668;23.364;2022-12-18T04:33:02;17.33;;;9.02;;
28625;SDS011;18905;42.668;23.364;2022-12-18T04:35:28;16.25;;;9.70;;
28625;SDS011;18905;42.668;23.364;2022-12-18T04:37:53;18.65;;;10.05;;
28625;SDS011;18905;42.668;23.364;2022-12-18T04:40:19;18.67;;;9.77;;
28625;SDS011;18905;42.668;23.364;2022-12-18T04:42:44;17.88;;;9.70;;
28625;SDS011;18905;42.668;23.364;2022-12-18T04:45:10;18.27;;;9.57;;
28625;SDS011;18905;42.668;23.364;2022-12-18T04:47:35;18.13;;;10.45;;
28625;SDS011;18905;42.668;23.364;2022-12-18T04:50:01;23.80;;;12.35;;
28625;SDS011;18905;42.668;23.364;2022-12-18T04:52:26;22.20;;;11.48;;
28625;SDS011;18905;42.668;23.364;2022-12-18T04:54:52;22.48;;;12.38;;
28625;SDS011;18905;42.668;23.364;2022-12-18T04:57:17;19.48;;;11.00;;
28625;SDS011;18905;42.668;23.364;2022-12-18T04:59:45;16.85;;;9.85;;
28625;SDS011;18905;42.668;23.364;2022-12-18T05:02:11;20.48;;;11.57;;
28625;SDS011;18905;42.668;23.364;2022-12-18T05:04:36;22.20;;;11.18;;
28625;SDS011;18905;42.668;23.364;2022-12-18T05:07:02;24.20;;;11.80;;
28625;SDS011;18905;42.668;23.364;2022-12-18T05:09:27;23.63;;;12.38;;
28625;SDS011;18905;42.668;23.364;2022-12-18T05:11:53;24.27;;;12.10;;
28625;SDS011;18905;42.668;23.364;2022-12-18T05:14:18;24.63;;;11.93;;
28625;SDS011;18905;42.668;23.364;2022-12-18T05:16:44;26.35;;;13.35;;
28625;SDS011;18905;42.668;23.364;2022-12-18T05:19:09;22.25;;;11.60;;
28625;SDS011;18905;42.668;23.364;2022-12-18T05:21:35;22.65;;;12.25;;
28625;SDS011;18905;42.668;23.364;2022-12-18T05:24:00;25.02;;;11.43;;
28625;SDS011;18905;42.668;23.364;2022-12-18T05:26:26;26.25;;;13.18;;
28625;SDS011;18905;42.668;23.364;2022-12-18T05:28:51;23.05;;;12.80;;
28625;SDS011;18905;42.668;23.364;2022-12-18T05:31:16;24.08;;;13.05;;
28625;SDS011;18905;42.668;23.364;2022-12-18T05:33:42;24.23;;;13.00;;
28625;SDS011;18905;42.668;23.364;2022-12-18T05:36:08;25.15;;;14.30;;
28625;SDS011;18905;42.668;23.364;2022-12-18T05:38:35;23.77;;;13.82;;
28625;SDS011;18905;42.668;23.364;2022-12-18T05:41:02;23.67;;;13.48;;
28625;SDS011;18905;42.668;23.364;2022-12-18T05:43:28;22.77;;;12.02;;
28625;SDS011;18905;42.668;23.364;2022-12-18T05:45:54;27.27;;;13.48;;
28625;SDS011;18905;42.668;23.364;2022-12-18T05:48:19;25.77;;;13.45;;
28625;SDS011;18905;42.668;23.364;2022-12-18T05:50:46;26.40;;;13.55;;
28625;SDS011;18905;42.668;23.364;2022-12-18T05:53:13;25.17;;;12.02;;
28625;SDS011;18905;42.668;23.364;2022-12-18T05:55:41;28.60;;;14.98;;
28625;SDS011;18905;42.668;23.364;2022-12-18T05:58:07;27.27;;;14.13;;
28625;SDS011;18905;42.668;23.364;2022-12-18T06:00:35;27.50;;;14.38;;
28625;SDS011;18905;42.668;23.364;2022-12-18T06:03:04;25.33;;;12.48;;
28625;SDS011;18905;42.668;23.364;2022-12-18T06:05:34;25.73;;;13.32;;
28625;SDS011;18905;42.668;23.364;2022-12-18T06:08:03;25.25;;;12.68;;
28625;SDS011;18905;42.668;23.364;2022-12-18T06:10:29;25.00;;;12.45;;
28625;SDS011;18905;42.668;23.364;2022-12-18T06:12:55;21.88;;;11.90;;
28625;SDS011;18905;42.668;23.364;2022-12-18T06:15:20;27.15;;;14.05;;
28625;SDS011;18905;42.668;23.364;2022-12-18T06:17:46;28.17;;;13.60;;
28625;SDS011;18905;42.668;23.364;2022-12-18T06:20:11;22.83;;;10.70;;
28625;SDS011;18905;42.668;23.364;2022-12-18T06:22:36;27.52;;;15.38;;
28625;SDS011;18905;42.668;23.364;2022-12-18T06:25:02;27.63;;;14.52;;
28625;SDS011;18905;42.668;23.364;2022-12-18T06:27:28;28.77;;;14.10;;
28625;SDS011;18905;42.668;23.364;2022-12-18T06:29:53;30.27;;;14.65;;
28625;SDS011;18905;42.668;23.364;2022-12-18T06:32:19;29.15;;;14.00;;
28625;SDS011;18905;42.668;23.364;2022-12-18T06:34:44;28.73;;;13.65;;
28625;SDS011;18905;42.668;23.364;2022-12-18T06:37:10;26.90;;;15.07;;
28625;SDS011;18905;42.668;23.364;2022-12-18T06:39:35;29.02;;;14.52;;
28625;SDS011;18905;42.668;23.364;2022-12-18T06:42:01;29.20;;;14.90;;
28625;SDS011;18905;42.668;23.364;2022-12-18T06:44:26;28.23;;;15.43;;
28625;SDS011;18905;42.668;23.364;2022-12-18T06:46:51;26.55;;;13.45;;
28625;SDS011;18905;42.668;23.364;2022-12-18T06:49:17;29.40;;;16.33;;
28625;SDS011;18905;42.668;23.364;2022-12-18T06:51:42;29.77;;;14.98;;
28625;SDS011;18905;42.668;23.364;2022-12-18T06:54:08;28.98;;;14.52;;
28625;SDS011;18905;42.668;23.364;2022-12-18T06:56:33;23.38;;;12.13;;
28625;SDS011;18905;42.668;23.364;2022-12-18T06:58:59;28.80;;;14.20;;
28625;SDS011;18905;42.668;23.364;2022-12-18T07:01:25;27.08;;;13.50;;
28625;SDS011;18905;42.668;23.364;2022-12-18T07:03:51;26.85;;;14.38;;
28625;SDS011;18905;42.668;23.364;2022-12-18T07:06:19;29.75;;;14.38;;
28625;SDS011;18905;42.668;23.364;2022-12-18T07:08:46;25.90;;;13.20;;
28625;SDS011;18905;42.668;23.364;2022-12-18T07:11:12;26.80;;;14.57;;
28625;SDS011;18905;42.668;23.364;2022-12-18T07:13:38;26.52;;;14.43;;
28625;SDS011;18905;42.668;23.364;2022-12-18T07:16:11;28.15;;;14.90;;
28625;SDS011;18905;42.668;23.364;2022-12-18T07:18:36;24.05;;;12.27;;
28625;SDS011;18905;42.668;23.364;2022-12-18T07:21:05;25.23;;;12.93;;
28625;SDS011;18905;42.668;23.364;2022-12-18T07:23:33;27.73;;;14.55;;
28625;SDS011;18905;42.668;23.364;2022-12-18T07:26:07;29.50;;;15.38;;
28625;SDS011;18905;42.668;23.364;2022-12-18T07:28:35;29.23;;;15.73;;
28625;SDS011;18905;42.668;23.364;2022-12-18T07:31:05;32.58;;;14.70;;
28625;SDS011;18905;42.668;23.364;2022-12-18T07:33:32;29.33;;;15.13;;
28625;SDS011;18905;42.668;23.364;2022-12-18T07:36:01;29.33;;;15.93;;
28625;SDS011;18905;42.668;23.364;2022-12-18T07:38:28;27.42;;;14.35;;
28625;SDS011;18905;42.668;23.364;2022-12-18T07:40:54;31.08;;;15.32;;
28625;SDS011;18905;42.668;23.364;2022-12-18T07:43:24;28.02;;;14.55;;
28625;SDS011;18905;42.668;23.364;2022-12-18T07:45:50;31.73;;;16.02;;
28625;SDS011;18905;42.668;23.364;2022-12-18T07:48:15;31.25;;;15.70;;
28625;SDS011;18905;42.668;23.364;2022-12-18T07:50:41;34.38;;;16.83;;
28625;SDS011;18905;42.668;23.364;2022-12-18T07:53:06;32.40;;;17.20;;
28625;SDS011;18905;42.668;23.364;2022-12-18T07:55:32;35.53;;;17.73;;
28625;SDS011;18905;42.668;23.364;2022-12-18T07:58:00;31.60;;;15.85;;
28625;SDS011;18905;42.668;23.364;2022-12-18T08:00:26;36.75;;;18.67;;
28625;SDS011;18905;42.668;23.364;2022-12-18T08:02:51;37.22;;;18.05;;
28625;SDS011;18905;42.668;23.364;2022-12-18T08:05:17;31.65;;;17.73;;
28625;SDS011;18905;42.668;23.364;2022-12-18T08:07:42;36.47;;;18.55;;
28625;SDS011;18905;42.668;23.364;2022-12-18T08:10:08;39.65;;;18.75;;
28625;SDS011;18905;42.668;23.364;2022-12-18T08:12:34;34.25;;;16.45;;
28625;SDS011;18905;42.668;23.364;2022-12-18T08:15:00;37.00;;;19.00;;
28625;SDS011;18905;42.668;23.364;2022-12-18T08:17:25;36.55;;;18.48;;
28625;SDS011;18905;42.668;23.364;2022-12-18T08:19:51;37.40;;;18.38;;
28625;SDS011;18905;42.668;23.364;2022-12-18T08:22:16;41.28;;;19.92;;
28625;SDS011;18905;42.668;23.364;2022-12-18T08:24:42;40.58;;;19.98;;
28625;SDS011;18905;42.668;23.364;2022-12-18T08:27:07;36.08;;;17.23;;
28625;SDS011;18905;42.668;23.364;2022-12-18T08:29:33;31.23;;;15.98;;
28625;SDS011;18905;42.668;23.364;2022-12-18T08:31:58;46.65;;;20.85;;
28625;SDS011;18905;42.668;23.364;2022-12-18T08:34:24;38.90;;;19.02;;
28625;SDS011;18905;42.668;23.364;2022-12-18T08:36:49;35.40;;;18.70;;
28625;SDS011;18905;42.668;23.364;2022-12-18T08:39:15;38.53;;;20.15;;
28625;SDS011;18905;42.668;23.364;2022-12-18T08:41:40;40.72;;;20.15;;
28625;SDS011;18905;42.668;23.364;2022-12-18T08:44:07;33.25;;;16.70;;
28625;SDS011;18905;42.668;23.364;2022-12-18T08:46:51;41.58;;;20.08;;
28625;SDS011;18905;42.668;23.364;2022-12-18T08:49:16;42.72;;;20.80;;
28625;SDS011;18905;42.668;23.364;2022-12-18T08:51:43;42.13;;;19.92;;
28625;SDS011;18905;42.668;23.364;2022-12-18T08:54:10;39.90;;;19.20;;
28625;SDS011;18905;42.668;23.364;2022-12-18T08:56:38;33.30;;;16.25;;
28625;SDS011;18905;42.668;23.364;2022-12-18T08:59:03;38.88;;;20.70;;
28625;SDS011;18905;42.668;23.364;2022-12-18T09:01:29;43.08;;;20.25;;
28625;SDS011;18905;42.668;23.364;2022-12-18T09:03:55;36.40;;;18.48;;
28625;SDS011;18905;42.668;23.364;2022-12-18T09:06:21;34.90;;;17.70;;
28625;SDS011;18905;42.668;23.364;2022-12-18T09:08:47;34.83;;;16.10;;
28625;SDS011;18905;42.668;23.364;2022-12-18T09:11:20;36.75;;;18.10;;
28625;SDS011;18905;42.668;23.364;2022-12-18T09:13:47;35.20;;;16.98;;
28625;SDS011;18905;42.668;23.364;2022-12-18T09:16:13;34.35;;;17.05;;
28625;SDS011;18905;42.668;23.364;2022-12-18T09:18:39;32.13;;;16.80;;
28625;SDS011;18905;42.668;23.364;2022-12-18T09:21:08;35.70;;;17.17;;
28625;SDS011;18905;42.668;23.364;2022-12-18T09:23:35;31.23;;;15.55;;
28625;SDS011;18905;42.668;23.364;2022-12-18T09:26:00;31.55;;;15.65;;
28625;SDS011;18905;42.668;23.364;2022-12-18T09:28:26;24.08;;;11.10;;
28625;SDS011;18905;42.668;23.364;2022-12-18T09:30:52;33.05;;;16.23;;
28625;SDS011;18905;42.668;23.364;2022-12-18T09:33:17;32.22;;;15.32;;
28625;SDS011;18905;42.668;23.364;2022-12-18T09:35:43;32.38;;;16.52;;
28625;SDS011;18905;42.668;23.364;2022-12-18T09:38:11;30.67;;;15.05;;
28625;SDS011;18905;42.668;23.364;2022-12-18T09:40:47;33.58;;;16.40;;
28625;SDS011;18905;42.668;23.364;2022-12-18T09:43:17;34.88;;;17.10;;
28625;SDS011;18905;42.668;23.364;2022-12-18T09:45:46;35.42;;;17.05;;
28625;SDS011;18905;42.668;23.364;2022-12-18T09:48:21;32.33;;;17.05;;
28625;SDS011;18905;42.668;23.364;2022-12-18T09:50:53;33.60;;;16.05;;
28625;SDS011;18905;42.668;23.364;2022-12-18T09:53:24;32.13;;;16.52;;
28625;SDS011;18905;42.668;23.364;2022-12-18T09:55:55;34.47;;;15.95;;
28625;SDS011;18905;42.668;23.364;2022-12-18T10:00:52;33.20;;;16.95;;
28625;SDS011;18905;42.668;23.364;2022-12-18T10:03:18;33.05;;;15.30;;
28625;SDS011;18905;42.668;23.364;2022-12-18T10:09:34;32.05;;;15.60;;
28625;SDS011;18905;42.668;23.364;2022-12-18T10:12:07;30.17;;;13.43;;
28625;SDS011;18905;42.668;23.364;2022-12-18T10:14:58;33.42;;;16.35;;
28625;SDS011;18905;42.668;23.364;2022-12-18T10:25:24;29.90;;;15.00;;
28625;SDS011;18905;42.668;23.364;2022-12-18T10:28:06;33.70;;;15.25;;
28625;SDS011;18905;42.668;23.364;2022-12-18T10:30:36;32.17;;;16.70;;
28625;SDS011;18905;42.668;23.364;2022-12-18T10:33:04;36.67;;;16.77;;
28625;SDS011;18905;42.668;23.364;2022-12-18T10:35:29;33.10;;;16.73;;
28625;SDS011;18905;42.668;23.364;2022-12-18T10:43:25;33.80;;;17.52;;
28625;SDS011;18905;42.668;23.364;2022-12-18T10:46:27;33.45;;;17.30;;
28625;SDS011;18905;42.668;23.364;2022-12-18T10:51:28;37.58;;;17.83;;
28625;SDS011;18905;42.668;23.364;2022-12-18T10:54:00;32.42;;;16.67;;
28625;SDS011;18905;42.668;23.364;2022-12-18T10:56:27;34.38;;;15.85;;
28625;SDS011;18905;42.668;23.364;2022-12-18T11:04:31;34.60;;;17.55;;
28625;SDS011;18905;42.668;23.364;2022-12-18T11:07:04;34.10;;;17.98;;
28625;SDS011;18905;42.668;23.364;2022-12-18T11:09:35;36.80;;;18.92;;
28625;SDS011;18905;42.668;23.364;2022-12-18T11:12:03;33.47;;;15.65;;
28625;SDS011;18905;42.668;23.364;2022-12-18T11:14:41;34.13;;;16.40;;
28625;SDS011;18905;42.668;23.364;2022-12-18T11:17:25;30.42;;;15.27;;
28625;SDS011;18905;42.668;23.364;2022-12-18T11:20:07;28.67;;;13.98;;
28625;SDS011;18905;42.668;23.364;2022-12-18T11:23:01;34.00;;;16.65;;
28625;SDS011;18905;42.668;23.364;2022-12-18T11:25:29;33.42;;;16.48;;
28625;SDS011;18905;42.668;23.364;2022-12-18T11:27:59;32.58;;;16.00;;
28625;SDS011;18905;42.668;23.364;2022-12-18T11:30:30;36.22;;;16.77;;
28625;SDS011;18905;42.668;23.364;2022-12-18T11:35:51;30.13;;;15.45;;
28625;SDS011;18905;42.668;23.364;2022-12-18T11:41:09;33.88;;;15.98;;
28625;SDS011;18905;42.668;23.364;2022-12-18T11:43:48;33.67;;;17.23;;
28625;SDS011;18905;42.668;23.364;2022-12-18T11:46:32;31.23;;;16.13;;
28625;SDS011;18905;42.668;23.364;2022-12-18T11:49:17;32.22;;;16.63;;
28625;SDS011;18905;42.668;23.364;2022-12-18T11:51:48;35.63;;;17.95;;
28625;SDS011;18905;42.668;23.364;2022-12-18T11:54:18;36.80;;;15.88;;
28625;SDS011;18905;42.668;23.364;2022-12-18T11:56:48;32.50;;;16.80;;
28625;SDS011;18905;42.668;23.364;2022-12-18T12:01:58;30.52;;;15.32;;
28625;SDS011;18905;42.668;23.364;2022-12-18T12:04:48;36.70;;;18.33;;
28625;SDS011;18905;42.668;23.364;2022-12-18T12:24:10;34.72;;;17.58;;
28625;SDS011;18905;42.668;23.364;2022-12-18T12:39:58;33.30;;;15.15;;
28625;SDS011;18905;42.668;23.364;2022-12-18T12:42:29;32.25;;;16.33;;
28625;SDS011;18905;42.668;23.364;2022-12-18T12:53:42;33.78;;;17.45;;
28625;SDS011;18905;42.668;23.364;2022-12-18T12:56:08;33.85;;;16.52;;
28625;SDS011;18905;42.668;23.364;2022-12-18T13:04:15;33.13;;;17.52;;
28625;SDS011;18905;42.668;23.364;2022-12-18T13:07:03;35.30;;;17.05;;
28625;SDS011;18905;42.668;23.364;2022-12-18T13:12:50;36.47;;;17.52;;
28625;SDS011;18905;42.668;23.364;2022-12-18T13:20:34;40.38;;;18.88;;
28625;SDS011;18905;42.668;23.364;2022-12-18T13:26:31;34.67;;;18.15;;
28625;SDS011;18905;42.668;23.364;2022-12-18T13:31:12;34.03;;;17.08;;
28625;SDS011;18905;42.668;23.364;2022-12-18T13:36:51;33.80;;;17.58;;
28625;SDS011;18905;42.668;23.364;2022-12-18T13:41:44;32.22;;;16.98;;
28625;SDS011;18905;42.668;23.364;2022-12-18T13:44:23;35.63;;;17.15;;
28625;SDS011;18905;42.668;23.364;2022-12-18T13:46:49;39.33;;;18.13;;
28625;SDS011;18905;42.668;23.364;2022-12-18T13:51:48;35.67;;;18.48;;
28625;SDS011;18905;42.668;23.364;2022-12-18T13:54:40;40.58;;;18.58;;
28625;SDS011;18905;42.668;23.364;2022-12-18T13:57:05;34.35;;;17.88;;
28625;SDS011;18905;42.668;23.364;2022-12-18T13:59:49;36.83;;;19.02;;
28625;SDS011;18905;42.668;23.364;2022-12-18T14:02:17;34.33;;;17.83;;
28625;SDS011;18905;42.668;23.364;2022-12-18T14:04:47;36.95;;;18.42;;
28625;SDS011;18905;42.668;23.364;2022-12-18T14:09:57;40.88;;;18.23;;
28625;SDS011;18905;42.668;23.364;2022-12-18T14:12:26;39.85;;;20.40;;
28625;SDS011;18905;42.668;23.364;2022-12-18T14:20:34;35.67;;;17.00;;
28625;SDS011;18905;42.668;23.364;2022-12-18T14:22:59;32.20;;;16.85;;
28625;SDS011;18905;42.668;23.364;2022-12-18T14:30:36;32.88;;;16.60;;
28625;SDS011;18905;42.668;23.364;2022-12-18T14:43:52;34.50;;;17.40;;
28625;SDS011;18905;42.668;23.364;2022-12-18T14:49:02;51.42;;;23.13;;
28625;SDS011;18905;42.668;23.364;2022-12-18T14:51:48;43.92;;;19.13;;
28625;SDS011;18905;42.668;23.364;2022-12-18T14:54:17;38.60;;;17.30;;
28625;SDS011;18905;42.668;23.364;2022-12-18T14:56:45;58.22;;;26.35;;
28625;SDS011;18905;42.668;23.364;2022-12-18T14:59:13;39.33;;;16.90;;
28625;SDS011;18905;42.668;23.364;2022-12-18T15:02:23;33.72;;;16.38;;
28625;SDS011;18905;42.668;23.364;2022-12-18T15:04:39;32.90;;;16.10;;
28625;SDS011;18905;42.668;23.364;2022-12-18T15:07:16;31.40;;;15.50;;
28625;SDS011;18905;42.668;23.364;2022-12-18T15:10:00;28.38;;;14.00;;
28625;SDS011;18905;42.668;23.364;2022-12-18T15:12:28;27.50;;;14.38;;
28625;SDS011;18905;42.668;23.364;2022-12-18T15:15:02;29.77;;;13.88;;
28625;SDS011;18905;42.668;23.364;2022-12-18T15:17:29;28.80;;;14.13;;
28625;SDS011;18905;42.668;23.364;2022-12-18T15:20:03;27.40;;;14.45;;
28625;SDS011;18905;42.668;23.364;2022-12-18T15:22:35;30.45;;;14.43;;
28625;SDS011;18905;42.668;23.364;2022-12-18T15:25:01;28.15;;;13.75;;
28625;SDS011;18905;42.668;23.364;2022-12-18T15:27:46;26.95;;;13.48;;
28625;SDS011;18905;42.668;23.364;2022-12-18T15:32:45;31.27;;;13.50;;
28625;SDS011;18905;42.668;23.364;2022-12-18T15:35:16;24.40;;;12.15;;
28625;SDS011;18905;42.668;23.364;2022-12-18T15:37:43;29.45;;;13.63;;
28625;SDS011;18905;42.668;23.364;2022-12-18T15:40:19;27.45;;;14.18;;
28625;SDS011;18905;42.668;23.364;2022-12-18T15:42:49;24.13;;;13.20;;
28625;SDS011;18905;42.668;23.364;2022-12-18T15:45:36;25.20;;;12.63;;
28625;SDS011;18905;42.668;23.364;2022-12-18T15:48:01;28.80;;;14.23;;
28625;SDS011;18905;42.668;23.364;2022-12-18T15:50:26;27.33;;;13.73;;
28625;SDS011;18905;42.668;23.364;2022-12-18T15:52:53;25.95;;;13.55;;
28625;SDS011;18905;42.668;23.364;2022-12-18T15:55:21;30.23;;;14.77;;
28625;SDS011;18905;42.668;23.364;2022-12-18T15:58:07;27.50;;;13.57;;
28625;SDS011;18905;42.668;23.364;2022-12-18T16:00:34;32.22;;;14.15;;
28625;SDS011;18905;42.668;23.364;2022-12-18T16:03:02;30.70;;;15.30;;
28625;SDS011;18905;42.668;23.364;2022-12-18T16:05:28;33.63;;;15.65;;
28625;SDS011;18905;42.668;23.364;2022-12-18T16:07:54;29.67;;;14.32;;
28625;SDS011;18905;42.668;23.364;2022-12-18T16:10:20;33.83;;;16.13;;
28625;SDS011;18905;42.668;23.364;2022-12-18T16:12:45;30.92;;;15.15;;
28625;SDS011;18905;42.668;23.364;2022-12-18T16:15:14;34.22;;;16.27;;
28625;SDS011;18905;42.668;23.364;2022-12-18T16:17:41;35.03;;;16.52;;
28625;SDS011;18905;42.668;23.364;2022-12-18T16:20:15;30.98;;;14.90;;
28625;SDS011;18905;42.668;23.364;2022-12-18T16:22:42;33.20;;;16.52;;
28625;SDS011;18905;42.668;23.364;2022-12-18T16:25:21;35.13;;;16.17;;
28625;SDS011;18905;42.668;23.364;2022-12-18T16:27:51;34.15;;;16.42;;
28625;SDS011;18905;42.668;23.364;2022-12-18T16:30:21;38.28;;;16.48;;
28625;SDS011;18905;42.668;23.364;2022-12-18T16:32:48;37.55;;;18.85;;
28625;SDS011;18905;42.668;23.364;2022-12-18T16:35:15;35.10;;;17.75;;
28625;SDS011;18905;42.668;23.364;2022-12-18T16:37:42;35.92;;;17.42;;
28625;SDS011;18905;42.668;23.364;2022-12-18T16:40:09;34.03;;;16.33;;
28625;SDS011;18905;42.668;23.364;2022-12-18T16:42:37;51.67;;;23.73;;
28625;SDS011;18905;42.668;23.364;2022-12-18T16:45:05;47.72;;;21.63;;
28625;SDS011;18905;42.668;23.364;2022-12-18T16:47:32;38.42;;;18.02;;
28625;SDS011;18905;42.668;23.364;2022-12-18T16:49:58;36.92;;;17.73;;
28625;SDS011;18905;42.668;23.364;2022-12-18T16:52:23;37.17;;;18.15;;
28625;SDS011;18905;42.668;23.364;2022-12-18T16:54:50;35.28;;;17.75;;
28625;SDS011;18905;42.668;23.364;2022-12-18T16:57:16;37.47;;;17.65;;
28625;SDS011;18905;42.668;23.364;2022-12-18T16:59:45;40.45;;;18.45;;
28625;SDS011;18905;42.668;23.364;2022-12-18T17:02:12;35.53;;;17.40;;
28625;SDS011;18905;42.668;23.364;2022-12-18T17:04:43;38.03;;;18.15;;
28625;SDS011;18905;42.668;23.364;2022-12-18T17:07:10;40.92;;;18.17;;
28625;SDS011;18905;42.668;23.364;2022-12-18T17:09:36;37.22;;;18.52;;
28625;SDS011;18905;42.668;23.364;2022-12-18T17:12:02;37.22;;;18.75;;